sensor_id;sensor_type;location;lat;lon;timestamp;temperature;humidity
60965;DHT22;46834;51.100;6.886;2022-12-07T00:01:24;6.60;51.60
60965;DHT22;46834;51.100;6.886;2022-12-07T00:03:53;6.60;51.70
60965;DHT22;46834;51.100;6.886;2022-12-07T00:06:26;6.60;51.70
60965;DHT22;46834;51.100;6.886;2022-12-07T00:08:52;6.60;51.70
60965;DHT22;46834;51.100;6.886;2022-12-07T00:11:20;6.60;51.70
60965;DHT22;46834;51.100;6.886;2022-12-07T00:13:50;6.50;51.70
60965;DHT22;46834;51.100;6.886;2022-12-07T00:16:19;6.60;51.80
60965;DHT22;46834;51.100;6.886;2022-12-07T00:18:47;6.60;51.80
60965;DHT22;46834;51.100;6.886;2022-12-07T00:21:16;6.60;51.80
60965;DHT22;46834;51.100;6.886;2022-12-07T00:23:47;6.50;51.80
60965;DHT22;46834;51.100;6.886;2022-12-07T00:26:20;6.50;51.80
60965;DHT22;46834;51.100;6.886;2022-12-07T00:28:49;6.60;51.90
60965;DHT22;46834;51.100;6.886;2022-12-07T00:31:22;6.50;51.80
60965;DHT22;46834;51.100;6.886;2022-12-07T00:33:50;6.60;51.80
60965;DHT22;46834;51.100;6.886;2022-12-07T00:36:18;6.60;51.80
60965;DHT22;46834;51.100;6.886;2022-12-07T00:38:46;6.50;52.30
60965;DHT22;46834;51.100;6.886;2022-12-07T00:41:14;6.60;51.80
60965;DHT22;46834;51.100;6.886;2022-12-07T00:43:42;6.50;51.70
60965;DHT22;46834;51.100;6.886;2022-12-07T00:46:10;6.50;51.70
60965;DHT22;46834;51.100;6.886;2022-12-07T00:48:37;6.50;51.80
60965;DHT22;46834;51.100;6.886;2022-12-07T00:51:03;6.50;51.80
60965;DHT22;46834;51.100;6.886;2022-12-07T00:53:30;6.50;51.80
60965;DHT22;46834;51.100;6.886;2022-12-07T00:55:56;6.60;51.90
60965;DHT22;46834;51.100;6.886;2022-12-07T00:58:23;6.50;51.80
60965;DHT22;46834;51.100;6.886;2022-12-07T01:00:49;6.50;51.70
60965;DHT22;46834;51.100;6.886;2022-12-07T01:03:15;6.50;51.70
60965;DHT22;46834;51.100;6.886;2022-12-07T01:05:53;6.50;51.60
60965;DHT22;46834;51.100;6.886;2022-12-07T01:08:20;6.50;51.80
60965;DHT22;46834;51.100;6.886;2022-12-07T01:10:46;6.50;51.70
60965;DHT22;46834;51.100;6.886;2022-12-07T01:13:12;6.50;51.70
60965;DHT22;46834;51.100;6.886;2022-12-07T01:15:42;6.50;51.70
60965;DHT22;46834;51.100;6.886;2022-12-07T01:18:09;6.50;51.80
60965;DHT22;46834;51.100;6.886;2022-12-07T01:20:35;6.40;51.70
60965;DHT22;46834;51.100;6.886;2022-12-07T01:23:00;6.40;51.80
60965;DHT22;46834;51.100;6.886;2022-12-07T01:25:27;6.40;51.80
60965;DHT22;46834;51.100;6.886;2022-12-07T01:27:52;6.40;51.80
60965;DHT22;46834;51.100;6.886;2022-12-07T01:30:18;6.40;51.80
60965;DHT22;46834;51.100;6.886;2022-12-07T01:32:44;6.40;51.80
60965;DHT22;46834;51.100;6.886;2022-12-07T01:35:09;6.40;51.80
60965;DHT22;46834;51.100;6.886;2022-12-07T01:37:36;6.40;51.90
60965;DHT22;46834;51.100;6.886;2022-12-07T01:40:06;6.40;51.90
60965;DHT22;46834;51.100;6.886;2022-12-07T01:42:33;6.40;51.90
60965;DHT22;46834;51.100;6.886;2022-12-07T01:47:50;6.40;52.10
60965;DHT22;46834;51.100;6.886;2022-12-07T01:50:19;6.40;51.90
60965;DHT22;46834;51.100;6.886;2022-12-07T01:52:49;6.40;51.90
60965;DHT22;46834;51.100;6.886;2022-12-07T01:55:18;6.40;52.00
60965;DHT22;46834;51.100;6.886;2022-12-07T01:57:48;6.30;51.80
60965;DHT22;46834;51.100;6.886;2022-12-07T02:00:16;6.40;52.00
60965;DHT22;46834;51.100;6.886;2022-12-07T02:02:53;6.30;51.90
60965;DHT22;46834;51.100;6.886;2022-12-07T02:05:30;6.40;52.10
60965;DHT22;46834;51.100;6.886;2022-12-07T02:07:58;6.30;51.80
60965;DHT22;46834;51.100;6.886;2022-12-07T02:10:30;6.30;51.80
60965;DHT22;46834;51.100;6.886;2022-12-07T02:18:34;6.30;52.10
60965;DHT22;46834;51.100;6.886;2022-12-07T02:32:51;6.30;51.90
60965;DHT22;46834;51.100;6.886;2022-12-07T02:35:59;6.30;52.00
60965;DHT22;46834;51.100;6.886;2022-12-07T02:38:39;6.30;52.10
60965;DHT22;46834;51.100;6.886;2022-12-07T02:41:23;6.30;52.10
60965;DHT22;46834;51.100;6.886;2022-12-07T02:43:57;6.30;52.10
60965;DHT22;46834;51.100;6.886;2022-12-07T02:46:32;6.30;52.00
60965;DHT22;46834;51.100;6.886;2022-12-07T02:49:01;6.30;52.00
60965;DHT22;46834;51.100;6.886;2022-12-07T02:51:32;6.30;51.90
60965;DHT22;46834;51.100;6.886;2022-12-07T02:53:59;6.30;52.00
60965;DHT22;46834;51.100;6.886;2022-12-07T03:02:59;6.20;52.10
60965;DHT22;46834;51.100;6.886;2022-12-07T03:05:56;6.20;52.10
60965;DHT22;46834;51.100;6.886;2022-12-07T03:09:14;6.20;52.10
60965;DHT22;46834;51.100;6.886;2022-12-07T03:11:44;6.20;51.80
60965;DHT22;46834;51.100;6.886;2022-12-07T03:14:24;6.20;52.10
60965;DHT22;46834;51.100;6.886;2022-12-07T03:17:18;6.20;52.00
60965;DHT22;46834;51.100;6.886;2022-12-07T03:19:49;6.20;52.10
60965;DHT22;46834;51.100;6.886;2022-12-07T03:22:19;6.20;52.00
60965;DHT22;46834;51.100;6.886;2022-12-07T03:24:53;6.10;51.90
60965;DHT22;46834;51.100;6.886;2022-12-07T03:27:25;6.20;52.10
60965;DHT22;46834;51.100;6.886;2022-12-07T03:30:03;6.10;52.00
60965;DHT22;46834;51.100;6.886;2022-12-07T03:32:36;6.10;52.10
60965;DHT22;46834;51.100;6.886;2022-12-07T03:41:01;6.20;52.20
60965;DHT22;46834;51.100;6.886;2022-12-07T03:43:36;6.20;52.10
60965;DHT22;46834;51.100;6.886;2022-12-07T03:52:02;6.20;52.20
60965;DHT22;46834;51.100;6.886;2022-12-07T03:55:02;6.20;52.10
60965;DHT22;46834;51.100;6.886;2022-12-07T03:57:34;6.20;52.20
60965;DHT22;46834;51.100;6.886;2022-12-07T04:00:05;6.20;52.10
60965;DHT22;46834;51.100;6.886;2022-12-07T04:02:33;6.20;52.20
60965;DHT22;46834;51.100;6.886;2022-12-07T04:05:01;6.20;52.20
60965;DHT22;46834;51.100;6.886;2022-12-07T04:07:27;6.20;52.20
60965;DHT22;46834;51.100;6.886;2022-12-07T04:09:52;6.20;52.20
60965;DHT22;46834;51.100;6.886;2022-12-07T04:12:20;6.10;52.00
60965;DHT22;46834;51.100;6.886;2022-12-07T04:14:46;6.10;52.00
60965;DHT22;46834;51.100;6.886;2022-12-07T04:17:12;6.10;52.00
60965;DHT22;46834;51.100;6.886;2022-12-07T04:19:38;6.10;52.00
60965;DHT22;46834;51.100;6.886;2022-12-07T04:22:04;6.10;52.10
60965;DHT22;46834;51.100;6.886;2022-12-07T04:24:31;6.10;52.70
60965;DHT22;46834;51.100;6.886;2022-12-07T04:26:57;6.10;52.00
60965;DHT22;46834;51.100;6.886;2022-12-07T04:29:23;6.10;52.00
60965;DHT22;46834;51.100;6.886;2022-12-07T04:31:50;6.10;52.00
60965;DHT22;46834;51.100;6.886;2022-12-07T04:34:16;6.10;52.00
60965;DHT22;46834;51.100;6.886;2022-12-07T04:36:43;6.10;52.00
60965;DHT22;46834;51.100;6.886;2022-12-07T04:39:20;6.00;52.00
60965;DHT22;46834;51.100;6.886;2022-12-07T04:41:48;6.00;52.10
60965;DHT22;46834;51.100;6.886;2022-12-07T04:44:15;6.00;52.00
60965;DHT22;46834;51.100;6.886;2022-12-07T04:46:41;6.00;52.10
60965;DHT22;46834;51.100;6.886;2022-12-07T04:49:08;6.00;52.10
60965;DHT22;46834;51.100;6.886;2022-12-07T04:51:34;6.00;52.10
60965;DHT22;46834;51.100;6.886;2022-12-07T04:53:59;6.00;52.10
60965;DHT22;46834;51.100;6.886;2022-12-07T04:56:25;6.00;52.20
60965;DHT22;46834;51.100;6.886;2022-12-07T04:58:53;6.00;52.20
60965;DHT22;46834;51.100;6.886;2022-12-07T05:01:20;6.00;52.20
60965;DHT22;46834;51.100;6.886;2022-12-07T05:03:47;6.00;52.20
60965;DHT22;46834;51.100;6.886;2022-12-07T05:06:13;6.00;52.20
60965;DHT22;46834;51.100;6.886;2022-12-07T05:08:40;6.00;52.20
60965;DHT22;46834;51.100;6.886;2022-12-07T05:11:07;6.10;52.30
60965;DHT22;46834;51.100;6.886;2022-12-07T05:13:34;6.10;52.30
60965;DHT22;46834;51.100;6.886;2022-12-07T05:16:00;6.00;52.10
60965;DHT22;46834;51.100;6.886;2022-12-07T05:18:26;6.00;52.00
60965;DHT22;46834;51.100;6.886;2022-12-07T05:20:52;6.00;52.00
60965;DHT22;46834;51.100;6.886;2022-12-07T05:23:18;6.00;51.90
60965;DHT22;46834;51.100;6.886;2022-12-07T05:25:44;6.00;51.90
60965;DHT22;46834;51.100;6.886;2022-12-07T05:28:10;6.00;52.00
60965;DHT22;46834;51.100;6.886;2022-12-07T05:30:36;6.00;52.10
60965;DHT22;46834;51.100;6.886;2022-12-07T05:33:02;6.00;52.00
60965;DHT22;46834;51.100;6.886;2022-12-07T05:35:29;5.90;52.80
60965;DHT22;46834;51.100;6.886;2022-12-07T05:37:55;5.90;52.90
60965;DHT22;46834;51.100;6.886;2022-12-07T05:40:22;5.90;52.90
60965;DHT22;46834;51.100;6.886;2022-12-07T05:42:48;5.90;52.90
60965;DHT22;46834;51.100;6.886;2022-12-07T05:45:13;5.90;52.90
60965;DHT22;46834;51.100;6.886;2022-12-07T05:47:39;5.90;52.90
60965;DHT22;46834;51.100;6.886;2022-12-07T05:50:05;5.80;52.80
60965;DHT22;46834;51.100;6.886;2022-12-07T05:52:31;5.80;52.80
60965;DHT22;46834;51.100;6.886;2022-12-07T05:54:57;5.80;52.80
60965;DHT22;46834;51.100;6.886;2022-12-07T05:57:23;5.80;52.80
60965;DHT22;46834;51.100;6.886;2022-12-07T05:59:49;5.80;52.80
60965;DHT22;46834;51.100;6.886;2022-12-07T06:02:15;5.80;52.70
60965;DHT22;46834;51.100;6.886;2022-12-07T06:04:44;5.70;52.70
60965;DHT22;46834;51.100;6.886;2022-12-07T06:07:12;5.70;52.80
60965;DHT22;46834;51.100;6.886;2022-12-07T06:09:40;5.70;52.80
60965;DHT22;46834;51.100;6.886;2022-12-07T06:12:06;5.70;52.90
60965;DHT22;46834;51.100;6.886;2022-12-07T06:14:54;5.70;52.90
60965;DHT22;46834;51.100;6.886;2022-12-07T06:17:20;5.70;52.90
60965;DHT22;46834;51.100;6.886;2022-12-07T06:19:46;5.70;52.90
60965;DHT22;46834;51.100;6.886;2022-12-07T06:22:12;5.70;53.00
60965;DHT22;46834;51.100;6.886;2022-12-07T06:24:38;5.70;53.00
60965;DHT22;46834;51.100;6.886;2022-12-07T06:27:05;5.70;53.00
60965;DHT22;46834;51.100;6.886;2022-12-07T06:29:31;5.70;53.00
60965;DHT22;46834;51.100;6.886;2022-12-07T06:31:57;5.70;53.00
60965;DHT22;46834;51.100;6.886;2022-12-07T06:34:23;5.70;53.00
60965;DHT22;46834;51.100;6.886;2022-12-07T06:36:50;5.70;53.00
60965;DHT22;46834;51.100;6.886;2022-12-07T06:39:19;5.70;53.00
60965;DHT22;46834;51.100;6.886;2022-12-07T06:41:47;5.80;53.10
60965;DHT22;46834;51.100;6.886;2022-12-07T06:44:13;5.80;53.10
60965;DHT22;46834;51.100;6.886;2022-12-07T06:46:39;5.80;53.00
60965;DHT22;46834;51.100;6.886;2022-12-07T06:49:05;5.80;53.00
60965;DHT22;46834;51.100;6.886;2022-12-07T06:51:31;5.80;52.90
60965;DHT22;46834;51.100;6.886;2022-12-07T06:54:00;5.70;52.90
60965;DHT22;46834;51.100;6.886;2022-12-07T06:56:26;5.70;52.90
60965;DHT22;46834;51.100;6.886;2022-12-07T06:58:51;5.70;52.90
60965;DHT22;46834;51.100;6.886;2022-12-07T07:01:18;5.70;52.90
60965;DHT22;46834;51.100;6.886;2022-12-07T07:03:44;5.70;53.00
60965;DHT22;46834;51.100;6.886;2022-12-07T07:06:11;5.70;53.00
60965;DHT22;46834;51.100;6.886;2022-12-07T07:08:38;5.70;53.00
60965;DHT22;46834;51.100;6.886;2022-12-07T07:11:05;5.70;53.00
60965;DHT22;46834;51.100;6.886;2022-12-07T07:13:31;5.70;53.00
60965;DHT22;46834;51.100;6.886;2022-12-07T07:15:57;5.70;53.00
60965;DHT22;46834;51.100;6.886;2022-12-07T07:18:24;5.70;53.00
60965;DHT22;46834;51.100;6.886;2022-12-07T07:20:51;5.70;53.00
60965;DHT22;46834;51.100;6.886;2022-12-07T07:23:18;5.70;53.10
60965;DHT22;46834;51.100;6.886;2022-12-07T07:25:44;5.70;53.10
60965;DHT22;46834;51.100;6.886;2022-12-07T07:28:11;5.70;53.10
60965;DHT22;46834;51.100;6.886;2022-12-07T07:30:37;5.70;53.10
60965;DHT22;46834;51.100;6.886;2022-12-07T07:33:03;5.80;53.20
60965;DHT22;46834;51.100;6.886;2022-12-07T07:35:32;5.80;53.10
60965;DHT22;46834;51.100;6.886;2022-12-07T07:37:59;5.80;53.10
60965;DHT22;46834;51.100;6.886;2022-12-07T07:40:26;5.80;53.10
60965;DHT22;46834;51.100;6.886;2022-12-07T07:42:54;5.80;53.10
60965;DHT22;46834;51.100;6.886;2022-12-07T07:45:22;5.80;53.10
60965;DHT22;46834;51.100;6.886;2022-12-07T07:47:49;5.80;53.10
60965;DHT22;46834;51.100;6.886;2022-12-07T07:50:15;5.80;53.00
60965;DHT22;46834;51.100;6.886;2022-12-07T07:52:41;5.80;53.00
60965;DHT22;46834;51.100;6.886;2022-12-07T07:55:08;5.80;53.00
60965;DHT22;46834;51.100;6.886;2022-12-07T07:57:34;5.80;53.00
60965;DHT22;46834;51.100;6.886;2022-12-07T08:00:05;5.80;53.00
60965;DHT22;46834;51.100;6.886;2022-12-07T08:02:33;5.80;53.10
60965;DHT22;46834;51.100;6.886;2022-12-07T08:04:59;5.80;53.10
60965;DHT22;46834;51.100;6.886;2022-12-07T08:07:25;5.80;53.10
60965;DHT22;46834;51.100;6.886;2022-12-07T08:09:52;5.80;53.00
60965;DHT22;46834;51.100;6.886;2022-12-07T08:12:17;5.80;53.10
60965;DHT22;46834;51.100;6.886;2022-12-07T08:14:43;5.80;53.10
60965;DHT22;46834;51.100;6.886;2022-12-07T08:17:08;5.80;53.10
60965;DHT22;46834;51.100;6.886;2022-12-07T08:19:34;5.80;53.10
60965;DHT22;46834;51.100;6.886;2022-12-07T08:22:00;5.80;53.00
60965;DHT22;46834;51.100;6.886;2022-12-07T08:24:25;5.80;53.00
60965;DHT22;46834;51.100;6.886;2022-12-07T08:26:51;5.80;53.00
60965;DHT22;46834;51.100;6.886;2022-12-07T08:29:17;5.80;53.00
60965;DHT22;46834;51.100;6.886;2022-12-07T08:31:43;5.70;53.00
60965;DHT22;46834;51.100;6.886;2022-12-07T08:34:11;5.80;53.10
60965;DHT22;46834;51.100;6.886;2022-12-07T08:36:37;5.80;53.10
60965;DHT22;46834;51.100;6.886;2022-12-07T08:39:03;5.80;53.10
60965;DHT22;46834;51.100;6.886;2022-12-07T08:41:28;5.80;53.10
60965;DHT22;46834;51.100;6.886;2022-12-07T08:43:54;5.80;53.10
60965;DHT22;46834;51.100;6.886;2022-12-07T08:49:08;5.90;53.20
60965;DHT22;46834;51.100;6.886;2022-12-07T08:51:35;5.80;53.10
60965;DHT22;46834;51.100;6.886;2022-12-07T08:54:04;5.90;53.20
60965;DHT22;46834;51.100;6.886;2022-12-07T08:56:33;5.90;53.20
60965;DHT22;46834;51.100;6.886;2022-12-07T08:59:00;5.90;53.20
60965;DHT22;46834;51.100;6.886;2022-12-07T09:01:27;5.90;53.20
60965;DHT22;46834;51.100;6.886;2022-12-07T09:03:53;6.00;52.50
60965;DHT22;46834;51.100;6.886;2022-12-07T09:06:19;6.00;52.50
60965;DHT22;46834;51.100;6.886;2022-12-07T09:08:47;6.00;52.50
60965;DHT22;46834;51.100;6.886;2022-12-07T09:11:15;6.00;52.40
60965;DHT22;46834;51.100;6.886;2022-12-07T09:13:41;6.10;52.40
60965;DHT22;46834;51.100;6.886;2022-12-07T09:16:06;6.10;52.40
60965;DHT22;46834;51.100;6.886;2022-12-07T09:18:32;6.10;52.30
60965;DHT22;46834;51.100;6.886;2022-12-07T09:20:58;6.10;52.30
60965;DHT22;46834;51.100;6.886;2022-12-07T09:23:23;6.10;52.30
60965;DHT22;46834;51.100;6.886;2022-12-07T09:25:49;6.10;52.20
60965;DHT22;46834;51.100;6.886;2022-12-07T09:28:15;6.10;52.20
60965;DHT22;46834;51.100;6.886;2022-12-07T09:30:47;6.10;52.20
60965;DHT22;46834;51.100;6.886;2022-12-07T09:33:14;6.10;52.30
60965;DHT22;46834;51.100;6.886;2022-12-07T09:35:47;6.10;52.30
60965;DHT22;46834;51.100;6.886;2022-12-07T09:38:15;6.10;52.40
60965;DHT22;46834;51.100;6.886;2022-12-07T09:40:42;6.20;52.50
60965;DHT22;46834;51.100;6.886;2022-12-07T09:43:17;6.20;52.50
60965;DHT22;46834;51.100;6.886;2022-12-07T09:45:48;6.20;52.60
60965;DHT22;46834;51.100;6.886;2022-12-07T09:48:30;6.30;52.60
60965;DHT22;46834;51.100;6.886;2022-12-07T09:50:59;6.30;52.60
60965;DHT22;46834;51.100;6.886;2022-12-07T09:53:34;6.30;52.50
60965;DHT22;46834;51.100;6.886;2022-12-07T09:56:03;6.40;52.70
60965;DHT22;46834;51.100;6.886;2022-12-07T09:58:31;6.40;52.70
60965;DHT22;46834;51.100;6.886;2022-12-07T10:01:05;6.40;52.60
60965;DHT22;46834;51.100;6.886;2022-12-07T10:03:38;6.50;52.60
60965;DHT22;46834;51.100;6.886;2022-12-07T10:06:06;6.50;52.50
60965;DHT22;46834;51.100;6.886;2022-12-07T10:08:33;6.50;52.40
60965;DHT22;46834;51.100;6.886;2022-12-07T10:11:01;6.50;52.40
60965;DHT22;46834;51.100;6.886;2022-12-07T10:13:41;6.50;52.40
60965;DHT22;46834;51.100;6.886;2022-12-07T10:18:50;6.60;52.40
60965;DHT22;46834;51.100;6.886;2022-12-07T10:21:18;6.60;52.30
60965;DHT22;46834;51.100;6.886;2022-12-07T10:29:21;6.60;52.40
60965;DHT22;46834;51.100;6.886;2022-12-07T10:34:30;6.70;52.60
60965;DHT22;46834;51.100;6.886;2022-12-07T10:39:50;6.70;52.70
60965;DHT22;46834;51.100;6.886;2022-12-07T10:42:26;6.80;52.70
60965;DHT22;46834;51.100;6.886;2022-12-07T10:45:15;6.80;52.70
60965;DHT22;46834;51.100;6.886;2022-12-07T11:05:34;7.00;52.30
60965;DHT22;46834;51.100;6.886;2022-12-07T11:11:25;7.00;52.30
60965;DHT22;46834;51.100;6.886;2022-12-07T11:14:05;7.00;52.30
60965;DHT22;46834;51.100;6.886;2022-12-07T11:16:56;7.00;52.20
60965;DHT22;46834;51.100;6.886;2022-12-07T11:26:02;7.10;52.20
60965;DHT22;46834;51.100;6.886;2022-12-07T11:31:29;7.00;52.20
60965;DHT22;46834;51.100;6.886;2022-12-07T11:34:05;7.10;52.30
60965;DHT22;46834;51.100;6.886;2022-12-07T11:36:48;7.00;52.30
60965;DHT22;46834;51.100;6.886;2022-12-07T11:41:48;7.20;52.80
60965;DHT22;46834;51.100;6.886;2022-12-07T11:44:33;7.30;53.10
60965;DHT22;46834;51.100;6.886;2022-12-07T11:47:13;7.50;53.30
60965;DHT22;46834;51.100;6.886;2022-12-07T11:49:44;7.60;53.10
60965;DHT22;46834;51.100;6.886;2022-12-07T11:52:22;7.80;53.00
60965;DHT22;46834;51.100;6.886;2022-12-07T11:54:57;7.90;52.60
60965;DHT22;46834;51.100;6.886;2022-12-07T11:57:33;8.00;52.60
60965;DHT22;46834;51.100;6.886;2022-12-07T12:00:13;8.00;52.30
60965;DHT22;46834;51.100;6.886;2022-12-07T12:03:09;8.10;52.20
60965;DHT22;46834;51.100;6.886;2022-12-07T12:05:39;8.10;52.00
60965;DHT22;46834;51.100;6.886;2022-12-07T12:08:18;8.20;52.20
60965;DHT22;46834;51.100;6.886;2022-12-07T12:11:03;8.20;51.80
60965;DHT22;46834;51.100;6.886;2022-12-07T12:13:57;8.20;51.60
60965;DHT22;46834;51.100;6.886;2022-12-07T12:20:19;8.20;51.40
60965;DHT22;46834;51.100;6.886;2022-12-07T12:23:00;8.20;51.30
60965;DHT22;46834;51.100;6.886;2022-12-07T12:25:41;8.20;51.40
60965;DHT22;46834;51.100;6.886;2022-12-07T12:28:30;8.10;51.50
60965;DHT22;46834;51.100;6.886;2022-12-07T12:31:16;8.10;51.40
60965;DHT22;46834;51.100;6.886;2022-12-07T12:36:58;8.10;51.30
60965;DHT22;46834;51.100;6.886;2022-12-07T12:39:24;8.10;51.60
60965;DHT22;46834;51.100;6.886;2022-12-07T12:41:53;8.10;51.70
60965;DHT22;46834;51.100;6.886;2022-12-07T12:46:56;8.20;51.80
60965;DHT22;46834;51.100;6.886;2022-12-07T12:55:11;8.40;51.60
60965;DHT22;46834;51.100;6.886;2022-12-07T12:57:38;8.50;51.60
60965;DHT22;46834;51.100;6.886;2022-12-07T13:00:22;8.50;51.80
60965;DHT22;46834;51.100;6.886;2022-12-07T13:02:58;8.60;51.60
60965;DHT22;46834;51.100;6.886;2022-12-07T13:05:31;8.70;51.70
60965;DHT22;46834;51.100;6.886;2022-12-07T13:08:02;8.70;51.60
60965;DHT22;46834;51.100;6.886;2022-12-07T13:10:44;8.70;51.70
60965;DHT22;46834;51.100;6.886;2022-12-07T13:23:33;8.70;51.10
60965;DHT22;46834;51.100;6.886;2022-12-07T13:28:45;8.70;51.10
60965;DHT22;46834;51.100;6.886;2022-12-07T13:34:02;8.60;50.80
60965;DHT22;46834;51.100;6.886;2022-12-07T13:36:39;8.60;50.90
60965;DHT22;46834;51.100;6.886;2022-12-07T13:39:18;8.50;50.70
60965;DHT22;46834;51.100;6.886;2022-12-07T13:41:53;8.50;50.70
60965;DHT22;46834;51.100;6.886;2022-12-07T13:44:21;8.40;50.70
60965;DHT22;46834;51.100;6.886;2022-12-07T13:46:55;8.40;50.90
60965;DHT22;46834;51.100;6.886;2022-12-07T13:49:37;8.30;50.70
60965;DHT22;46834;51.100;6.886;2022-12-07T13:52:15;8.30;51.40
60965;DHT22;46834;51.100;6.886;2022-12-07T13:57:29;8.30;50.80
60965;DHT22;46834;51.100;6.886;2022-12-07T13:59:56;8.20;50.80
60965;DHT22;46834;51.100;6.886;2022-12-07T14:02:31;8.20;50.90
60965;DHT22;46834;51.100;6.886;2022-12-07T14:05:24;8.20;50.70
60965;DHT22;46834;51.100;6.886;2022-12-07T14:07:56;8.20;50.80
60965;DHT22;46834;51.100;6.886;2022-12-07T14:10:26;8.20;50.90
60965;DHT22;46834;51.100;6.886;2022-12-07T14:12:54;8.10;50.80
60965;DHT22;46834;51.100;6.886;2022-12-07T14:15:28;8.10;50.80
60965;DHT22;46834;51.100;6.886;2022-12-07T14:17:57;8.10;50.80
60965;DHT22;46834;51.100;6.886;2022-12-07T14:20:38;8.00;50.80
60965;DHT22;46834;51.100;6.886;2022-12-07T14:23:20;8.00;50.70
60965;DHT22;46834;51.100;6.886;2022-12-07T14:25:51;8.00;50.90
60965;DHT22;46834;51.100;6.886;2022-12-07T14:28:32;8.00;50.90
60965;DHT22;46834;51.100;6.886;2022-12-07T14:31:00;8.00;50.80
60965;DHT22;46834;51.100;6.886;2022-12-07T14:33:27;8.00;50.90
60965;DHT22;46834;51.100;6.886;2022-12-07T14:35:53;7.90;50.90
60965;DHT22;46834;51.100;6.886;2022-12-07T14:38:21;7.90;50.90
60965;DHT22;46834;51.100;6.886;2022-12-07T14:40:48;7.90;50.90
60965;DHT22;46834;51.100;6.886;2022-12-07T14:43:17;7.90;50.90
60965;DHT22;46834;51.100;6.886;2022-12-07T14:45:44;7.90;50.90
60965;DHT22;46834;51.100;6.886;2022-12-07T14:48:16;7.90;51.00
60965;DHT22;46834;51.100;6.886;2022-12-07T14:50:47;7.90;50.90
60965;DHT22;46834;51.100;6.886;2022-12-07T14:53:18;7.90;51.00
60965;DHT22;46834;51.100;6.886;2022-12-07T14:55:52;7.90;51.00
60965;DHT22;46834;51.100;6.886;2022-12-07T14:58:18;7.90;51.00
60965;DHT22;46834;51.100;6.886;2022-12-07T15:00:44;7.80;50.80
60965;DHT22;46834;51.100;6.886;2022-12-07T15:03:10;7.80;50.70
60965;DHT22;46834;51.100;6.886;2022-12-07T15:05:38;7.80;50.70
60965;DHT22;46834;51.100;6.886;2022-12-07T15:08:11;7.70;50.70
60965;DHT22;46834;51.100;6.886;2022-12-07T15:10:38;7.70;50.60
60965;DHT22;46834;51.100;6.886;2022-12-07T15:13:06;7.60;50.60
60965;DHT22;46834;51.100;6.886;2022-12-07T15:15:52;7.60;50.60
60965;DHT22;46834;51.100;6.886;2022-12-07T15:18:19;7.60;50.70
60965;DHT22;46834;51.100;6.886;2022-12-07T15:20:46;7.50;50.70
60965;DHT22;46834;51.100;6.886;2022-12-07T15:23:13;7.50;50.70
60965;DHT22;46834;51.100;6.886;2022-12-07T15:25:43;7.50;50.60
60965;DHT22;46834;51.100;6.886;2022-12-07T15:28:11;7.50;50.60
60965;DHT22;46834;51.100;6.886;2022-12-07T15:30:38;7.40;50.50
60965;DHT22;46834;51.100;6.886;2022-12-07T15:33:05;7.60;50.60
60965;DHT22;46834;51.100;6.886;2022-12-07T15:35:30;7.40;50.50
60965;DHT22;46834;51.100;6.886;2022-12-07T15:37:56;7.30;50.30
60965;DHT22;46834;51.100;6.886;2022-12-07T15:40:21;7.30;50.30
60965;DHT22;46834;51.100;6.886;2022-12-07T15:42:47;7.30;50.40
60965;DHT22;46834;51.100;6.886;2022-12-07T15:45:13;7.20;50.30
60965;DHT22;46834;51.100;6.886;2022-12-07T15:47:42;7.20;50.30
60965;DHT22;46834;51.100;6.886;2022-12-07T15:50:13;7.20;50.30
60965;DHT22;46834;51.100;6.886;2022-12-07T15:52:40;7.20;50.30
60965;DHT22;46834;51.100;6.886;2022-12-07T15:55:06;7.10;50.30
60965;DHT22;46834;51.100;6.886;2022-12-07T15:57:35;7.10;50.30
60965;DHT22;46834;51.100;6.886;2022-12-07T16:00:03;7.10;50.30
60965;DHT22;46834;51.100;6.886;2022-12-07T16:02:30;7.00;50.20
60965;DHT22;46834;51.100;6.886;2022-12-07T16:04:55;7.00;50.30
60965;DHT22;46834;51.100;6.886;2022-12-07T16:07:21;7.00;50.30
60965;DHT22;46834;51.100;6.886;2022-12-07T16:09:47;7.00;50.40
60965;DHT22;46834;51.100;6.886;2022-12-07T16:12:15;7.00;50.40
60965;DHT22;46834;51.100;6.886;2022-12-07T16:14:41;7.00;50.40
60965;DHT22;46834;51.100;6.886;2022-12-07T16:17:08;7.00;50.50
60965;DHT22;46834;51.100;6.886;2022-12-07T16:19:36;7.00;50.50
60965;DHT22;46834;51.100;6.886;2022-12-07T16:22:04;7.00;50.50
60965;DHT22;46834;51.100;6.886;2022-12-07T16:24:30;7.00;50.50
60965;DHT22;46834;51.100;6.886;2022-12-07T16:26:56;7.00;50.50
60965;DHT22;46834;51.100;6.886;2022-12-07T16:29:23;6.90;50.50
60965;DHT22;46834;51.100;6.886;2022-12-07T16:31:50;7.00;50.60
60965;DHT22;46834;51.100;6.886;2022-12-07T16:34:17;7.00;50.60
60965;DHT22;46834;51.100;6.886;2022-12-07T16:36:43;7.00;50.60
60965;DHT22;46834;51.100;6.886;2022-12-07T16:39:09;7.00;50.60
60965;DHT22;46834;51.100;6.886;2022-12-07T16:41:35;7.00;50.60
60965;DHT22;46834;51.100;6.886;2022-12-07T16:44:03;7.00;50.60
60965;DHT22;46834;51.100;6.886;2022-12-07T16:46:35;7.00;50.60
60965;DHT22;46834;51.100;6.886;2022-12-07T16:49:01;7.00;50.60
60965;DHT22;46834;51.100;6.886;2022-12-07T16:51:28;7.00;50.60
60965;DHT22;46834;51.100;6.886;2022-12-07T16:53:54;7.00;50.60
60965;DHT22;46834;51.100;6.886;2022-12-07T16:56:21;7.00;50.60
60965;DHT22;46834;51.100;6.886;2022-12-07T16:58:47;7.00;50.60
60965;DHT22;46834;51.100;6.886;2022-12-07T17:01:16;7.00;50.60
60965;DHT22;46834;51.100;6.886;2022-12-07T17:03:44;7.00;50.70
60965;DHT22;46834;51.100;6.886;2022-12-07T17:06:18;7.00;50.70
60965;DHT22;46834;51.100;6.886;2022-12-07T17:08:49;7.00;50.70
60965;DHT22;46834;51.100;6.886;2022-12-07T17:11:23;7.00;50.70
60965;DHT22;46834;51.100;6.886;2022-12-07T17:13:51;6.90;50.60
60965;DHT22;46834;51.100;6.886;2022-12-07T17:16:36;7.00;50.70
60965;DHT22;46834;51.100;6.886;2022-12-07T17:19:10;7.00;50.70
60965;DHT22;46834;51.100;6.886;2022-12-07T17:21:37;7.00;50.70
60965;DHT22;46834;51.100;6.886;2022-12-07T17:24:06;6.90;50.70
60965;DHT22;46834;51.100;6.886;2022-12-07T17:26:34;6.90;50.70
60965;DHT22;46834;51.100;6.886;2022-12-07T17:29:00;6.90;50.70
60965;DHT22;46834;51.100;6.886;2022-12-07T17:31:26;7.00;50.80
60965;DHT22;46834;51.100;6.886;2022-12-07T17:33:52;7.00;50.80
60965;DHT22;46834;51.100;6.886;2022-12-07T17:36:28;6.90;50.70
60965;DHT22;46834;51.100;6.886;2022-12-07T17:38:55;6.90;50.80
60965;DHT22;46834;51.100;6.886;2022-12-07T17:41:23;6.90;50.80
60965;DHT22;46834;51.100;6.886;2022-12-07T17:44:12;6.90;50.70
60965;DHT22;46834;51.100;6.886;2022-12-07T17:46:39;7.00;50.80
60965;DHT22;46834;51.100;6.886;2022-12-07T17:49:06;6.90;50.80
60965;DHT22;46834;51.100;6.886;2022-12-07T17:51:32;6.90;50.90
60965;DHT22;46834;51.100;6.886;2022-12-07T17:54:17;6.90;50.90
60965;DHT22;46834;51.100;6.886;2022-12-07T17:56:43;6.90;50.90
60965;DHT22;46834;51.100;6.886;2022-12-07T17:59:09;6.90;50.90
60965;DHT22;46834;51.100;6.886;2022-12-07T18:01:35;6.90;50.90
60965;DHT22;46834;51.100;6.886;2022-12-07T18:04:02;6.90;50.90